weather.gov     
National Weather Service

Terminal Aerodrome Forecast
NWS Homepage
This page is being discontinued on March 12, 2014.
The same data is available at this site. Please update your bookmarks.
Thank you, and we apologize for the inconvenience.
Please send an email to SR-SRH.Webmaster@noaa.gov with any concerns.


Current Version
Previous Version:    01  02  03  04  05  06  07  08  09  10  11  12  13  14  15  16  17  18  19  20  21  22  23  24  25  
[Printable]
116
FTUS44 KJAN 222300 RRA
TAFMEI
TAF
KMEI 222352Z 2300/2324 12006KT P6SM SCT040 SCT150 BKN250
     FM230200 13008KT P6SM FEW008 BKN025 OVC200
     FM230700 13009KT P6SM VCSH BKN008 OVC040
     FM231130 14012G20KT 6SM -TSRA BR OVC010CB
     FM231400 15014G21KT 3SM TSRA BR OVC007CB
     FM231800 20015G24KT P6SM VCSH FEW030 BKN050=


U.S. Dept. of Commerce
NOAA National Weather Service
1325 East West Highway
Silver Spring, MD 20910
E-mail: w-nws.webmaster@noaa.gov
Page last modified: May 16, 2007
NATIONAL WEATHER SERVICE: for Safety, for Work, for Fun - FOR LIFE